createdAt,value
2023-05-02T00:02:07.313Z,102060.75
2023-05-02T00:04:35.454Z,102064.25
2023-05-02T00:07:03.485Z,102054.22
2023-05-02T00:09:31.553Z,102060.94
2023-05-02T00:11:59.676Z,102039.91
2023-05-02T00:14:28.034Z,102059.00
2023-05-02T00:16:57.363Z,102058.34
2023-05-02T00:19:25.181Z,102060.09
2023-05-02T00:21:53.341Z,102067.47
2023-05-02T00:24:21.124Z,102061.72
2023-05-02T00:26:48.877Z,102059.75
2023-05-02T00:29:16.630Z,102066.38
2023-05-02T00:31:44.453Z,102067.47
2023-05-02T00:34:13.641Z,102066.38
2023-05-02T00:36:41.561Z,102069.22
2023-05-02T00:39:09.766Z,102071.47
2023-05-02T00:41:37.554Z,102068.38
2023-05-02T00:44:05.446Z,102068.38
2023-05-02T00:46:33.218Z,102063.66
2023-05-02T00:49:01.854Z,102069.09
2023-05-02T00:51:31.120Z,102067.81
2023-05-02T00:53:58.960Z,102070.66
2023-05-02T00:56:26.734Z,102073.38
2023-05-02T00:58:55.451Z,102077.59
2023-05-02T01:01:35.364Z,102073.72
2023-05-02T01:04:13.189Z,102071.56
2023-05-02T01:06:54.504Z,102071.34
2023-05-02T01:09:35.492Z,102071.34
2023-05-02T01:12:08.553Z,102070.38
2023-05-02T01:14:42.718Z,102076.16
2023-05-02T01:17:14.305Z,102083.94
2023-05-02T01:19:46.010Z,102078.16
2023-05-02T01:22:17.605Z,102082.84
2023-05-02T01:24:55.938Z,102092.75
2023-05-02T01:27:32.350Z,102090.72
2023-05-02T01:30:03.447Z,102096.19
2023-05-02T01:32:34.436Z,102099.47
2023-05-02T01:35:03.934Z,102095.59
2023-05-02T01:37:33.330Z,102107.88
2023-05-02T01:40:04.258Z,102109.63
2023-05-02T01:42:33.955Z,102118.63
2023-05-02T01:45:06.462Z,102116.69
2023-05-02T01:47:37.186Z,102120.16
2023-05-02T01:50:06.882Z,102113.19
2023-05-02T01:52:35.478Z,102113.31
2023-05-02T01:55:05.582Z,102107.56
2023-05-02T01:57:33.777Z,102125.03
2023-05-02T02:00:04.928Z,102123.84
2023-05-02T02:02:35.131Z,102134.06
2023-05-02T02:05:06.021Z,102132.56
2023-05-02T02:07:34.227Z,102139.50
2023-05-02T02:10:02.639Z,102145.91
2023-05-02T02:12:39.594Z,102145.69
2023-05-02T02:15:14.981Z,102153.19
2023-05-02T02:17:47.325Z,102155.91
2023-05-02T02:20:16.803Z,102150.16
2023-05-02T02:22:46.020Z,102155.13
2023-05-02T02:25:17.710Z,102161.09
2023-05-02T02:27:45.636Z,102171.63
2023-05-02T02:30:16.537Z,102163.94
2023-05-02T02:32:44.412Z,102168.38
2023-05-02T02:35:12.720Z,102172.94
2023-05-02T02:37:47.136Z,102173.72
2023-05-02T02:40:25.473Z,102175.66
2023-05-02T02:43:03.082Z,102183.47
2023-05-02T02:45:40.141Z,102181.84
2023-05-02T02:48:20.521Z,102189.00
2023-05-02T02:51:00.354Z,102184.75
2023-05-02T02:53:35.982Z,102188.56
2023-05-02T02:56:07.749Z,102206.59
2023-05-02T02:58:47.437Z,102199.84
2023-05-02T03:01:21.564Z,102200.28
2023-05-02T03:03:50.503Z,102201.72
2023-05-02T03:06:19.461Z,102206.72
2023-05-02T03:08:47.358Z,102210.28
2023-05-02T03:11:15.087Z,102203.22
2023-05-02T03:13:43.141Z,102206.06
2023-05-02T03:16:32.559Z,102210.94
2023-05-02T03:19:00.459Z,102221.25
2023-05-02T03:21:28.211Z,102221.91
2023-05-02T03:23:56.440Z,102224.50
2023-05-02T03:26:24.210Z,102237.19
2023-05-02T03:28:51.936Z,102235.25
2023-05-02T03:31:19.788Z,102236.09
2023-05-02T03:33:49.010Z,102247.31
2023-05-02T03:36:16.885Z,102242.28
2023-05-02T03:38:44.626Z,102245.66
2023-05-02T03:41:12.496Z,102251.19
2023-05-02T03:43:40.390Z,102249.44
2023-05-02T03:46:11.579Z,102244.91
2023-05-02T03:48:39.897Z,102243.47
2023-05-02T03:51:09.986Z,102244.13
2023-05-02T03:53:37.838Z,102257.91
2023-05-02T03:56:06.478Z,102258.22
2023-05-02T03:58:34.239Z,102265.69
2023-05-02T04:01:01.982Z,102267.63
2023-05-02T04:03:30.188Z,102269.47
2023-05-02T04:05:58.051Z,102267.22
2023-05-02T04:08:27.285Z,102278.72
2023-05-02T04:10:55.026Z,102272.38
2023-05-02T04:13:22.758Z,102274.03
2023-05-02T04:15:50.512Z,102274.75
2023-05-02T04:18:18.407Z,102289.88
2023-05-02T04:20:46.491Z,102295.13
2023-05-02T04:23:14.392Z,102299.78
2023-05-02T04:25:51.503Z,102295.13
2023-05-02T04:28:19.338Z,102294.44
2023-05-02T04:30:47.061Z,102296.69
2023-05-02T04:33:14.846Z,102291.94
2023-05-02T04:35:43.038Z,102309.75
2023-05-02T04:38:10.923Z,102311.97
2023-05-02T04:40:38.742Z,102317.28
2023-05-02T04:43:07.941Z,102317.78
2023-05-02T04:45:36.618Z,102321.31
2023-05-02T04:48:04.919Z,102327.47
2023-05-02T04:50:33.028Z,102333.69
2023-05-02T04:53:00.784Z,102335.03
2023-05-02T04:55:28.521Z,102342.09
2023-05-02T04:57:56.308Z,102347.53
2023-05-02T05:00:25.462Z,102346.44
2023-05-02T05:02:53.317Z,102351.41
2023-05-02T05:05:21.351Z,102357.13
2023-05-02T05:07:49.104Z,102354.19
2023-05-02T05:10:17.024Z,102349.44
2023-05-02T05:12:44.793Z,102359.22
2023-05-02T05:15:12.706Z,102359.63
2023-05-02T05:17:41.971Z,102352.97
2023-05-02T05:20:10.552Z,102367.00
2023-05-02T05:22:41.782Z,102358.19
2023-05-02T05:25:10.239Z,102367.28
2023-05-02T05:27:38.597Z,102368.94
2023-05-02T05:30:08.869Z,102372.91
2023-05-02T05:32:36.983Z,102380.06
2023-05-02T05:35:06.972Z,102379.41
2023-05-02T05:37:36.963Z,102385.44
2023-05-02T05:40:05.211Z,102389.28
2023-05-02T05:42:32.978Z,102401.88
2023-05-02T05:45:00.844Z,102390.63
2023-05-02T05:47:28.880Z,102397.03
2023-05-02T05:49:57.345Z,102402.28
2023-05-02T05:52:26.758Z,102423.97
2023-05-02T05:54:55.534Z,102424.53
2023-05-02T05:57:23.804Z,102417.94
2023-05-02T05:59:52.001Z,102419.56
2023-05-02T06:02:20.119Z,102423.06
2023-05-02T06:04:48.046Z,102421.03
2023-05-02T06:07:15.805Z,102435.06
2023-05-02T06:09:44.932Z,102441.28
2023-05-02T06:12:12.685Z,102451.44
2023-05-02T06:14:42.998Z,102452.53
2023-05-02T06:17:10.804Z,102448.56
2023-05-02T06:19:38.593Z,102451.31
2023-05-02T06:22:06.435Z,102452.13
2023-05-02T06:24:34.599Z,102456.97
2023-05-02T06:27:06.058Z,102461.72
2023-05-02T06:29:33.855Z,102458.69
2023-05-02T06:32:01.882Z,102468.06
2023-05-02T06:34:29.779Z,102461.44
2023-05-02T06:36:57.662Z,102472.28
2023-05-02T06:39:25.578Z,102477.13
2023-05-02T06:41:57.962Z,102486.47
2023-05-02T06:44:27.178Z,102489.28
2023-05-02T06:46:55.726Z,102497.03
2023-05-02T06:49:23.807Z,102492.47
2023-05-02T06:51:51.568Z,102509.72
2023-05-02T06:54:19.430Z,102515.56
2023-05-02T06:56:47.278Z,102509.28
2023-05-02T06:59:16.679Z,102513.94
2023-05-02T07:01:46.124Z,102516.31
2023-05-02T07:04:13.934Z,102523.44
2023-05-02T07:06:41.947Z,102524.63
2023-05-02T07:09:09.730Z,102526.84
2023-05-02T07:11:37.453Z,102526.75
2023-05-02T07:14:05.299Z,102535.66
2023-05-02T07:16:33.159Z,102543.63
2023-05-02T07:19:04.704Z,102536.16
2023-05-02T07:21:32.559Z,102543.69
2023-05-02T07:24:00.811Z,102538.53
2023-05-02T07:26:29.441Z,102545.81
2023-05-02T07:28:57.154Z,102541.56
2023-05-02T07:31:24.953Z,102544.19
2023-05-02T07:33:52.725Z,102540.97
2023-05-02T07:36:21.841Z,102544.00
2023-05-02T07:38:49.635Z,102528.28
2023-05-02T07:41:17.449Z,102554.75
2023-05-02T07:43:45.165Z,102559.84
2023-05-02T07:46:13.091Z,102557.38
2023-05-02T07:48:42.169Z,102569.44
2023-05-02T07:51:11.302Z,102562.84
2023-05-02T07:53:43.111Z,102558.03
2023-05-02T07:56:10.858Z,102573.63
2023-05-02T07:58:43.600Z,102569.59
2023-05-02T08:01:11.677Z,102574.78
2023-05-02T08:03:39.742Z,102575.16
2023-05-02T08:06:08.480Z,102580.13
2023-05-02T08:08:36.389Z,102575.03
2023-05-02T08:11:05.693Z,102583.81
2023-05-02T08:13:33.597Z,102582.69
2023-05-02T08:16:02.678Z,102583.34
2023-05-02T08:18:30.554Z,102586.47
2023-05-02T08:20:58.835Z,102590.88
2023-05-02T08:23:26.684Z,102597.94
2023-05-02T08:25:55.246Z,102602.19
2023-05-02T08:28:24.406Z,102604.63
2023-05-02T08:30:52.212Z,102609.94
2023-05-02T08:33:20.019Z,102606.97
2023-05-02T08:35:47.926Z,102603.81
2023-05-02T08:38:15.830Z,102608.16
2023-05-02T08:40:43.596Z,102610.22
2023-05-02T08:43:12.968Z,102613.53
2023-05-02T08:45:43.651Z,102624.31
2023-05-02T08:48:12.795Z,102620.53
2023-05-02T08:50:42.910Z,102625.06
2023-05-02T08:53:12.295Z,102619.13
2023-05-02T08:55:41.578Z,102613.41
2023-05-02T08:58:10.653Z,102625.03
2023-05-02T09:00:42.073Z,102617.16
2023-05-02T09:03:23.785Z,102627.22
2023-05-02T09:05:55.224Z,102625.66
2023-05-02T09:08:23.854Z,102634.19
2023-05-02T09:10:51.712Z,102632.75
2023-05-02T09:13:37.026Z,102637.19
2023-05-02T09:16:06.765Z,102639.94
2023-05-02T09:18:37.140Z,102638.56
2023-05-02T09:21:09.053Z,102641.34
2023-05-02T09:23:38.614Z,102649.94
2023-05-02T09:26:18.258Z,102652.91
2023-05-02T09:28:47.266Z,102649.56
2023-05-02T09:31:22.877Z,102653.66
2023-05-02T09:34:12.363Z,102654.88
2023-05-02T09:36:54.241Z,102649.94
2023-05-02T09:39:25.786Z,102658.59
2023-05-02T09:41:54.218Z,102663.31
2023-05-02T09:44:24.495Z,102658.91
2023-05-02T09:46:54.029Z,102653.78
2023-05-02T09:49:44.276Z,102664.03
2023-05-02T09:52:13.118Z,102651.09
2023-05-02T09:54:40.912Z,102669.16
2023-05-02T09:57:10.829Z,102668.91
2023-05-02T09:59:42.571Z,102675.91
2023-05-02T10:02:12.096Z,102679.94
2023-05-02T10:04:43.038Z,102674.53
2023-05-02T10:07:12.280Z,102669.94
2023-05-02T10:09:44.888Z,102665.72
2023-05-02T10:12:16.838Z,102668.47
2023-05-02T10:14:50.722Z,102667.72
2023-05-02T10:17:24.250Z,102663.50
2023-05-02T10:19:59.960Z,102681.66
2023-05-02T10:22:27.924Z,102678.66
2023-05-02T10:24:58.949Z,102669.91
2023-05-02T10:27:26.905Z,102677.66
2023-05-02T10:29:55.622Z,102679.03
2023-05-02T10:32:24.630Z,102678.91
2023-05-02T10:34:57.886Z,102688.38
2023-05-02T10:37:27.522Z,102681.03
2023-05-02T10:39:55.771Z,102680.28
2023-05-02T10:42:24.104Z,102682.13
2023-05-02T10:44:52.017Z,102687.63
2023-05-02T10:47:21.440Z,102688.72
2023-05-02T10:49:55.276Z,102682.22
2023-05-02T10:52:34.168Z,102687.72
2023-05-02T10:55:22.445Z,102687.25
2023-05-02T10:58:21.951Z,102686.72
2023-05-02T11:00:49.776Z,102678.41
2023-05-02T11:03:56.794Z,102688.94
2023-05-02T11:06:26.838Z,102692.81
2023-05-02T11:08:54.852Z,102696.00
2023-05-02T11:11:43.496Z,102694.69
2023-05-02T11:14:13.956Z,102699.97
2023-05-02T11:17:07.693Z,102693.78
2023-05-02T11:20:09.104Z,102688.16
2023-05-02T11:22:46.161Z,102696.69
2023-05-02T11:25:38.985Z,102700.78
2023-05-02T11:28:10.240Z,102696.56
2023-05-02T11:30:45.935Z,102685.44
2023-05-02T11:33:20.609Z,102690.16
2023-05-02T11:35:50.017Z,102688.47
2023-05-02T11:38:21.666Z,102697.38
2023-05-02T11:41:00.160Z,102690.06
2023-05-02T11:43:31.849Z,102687.47
2023-05-02T11:46:01.895Z,102686.34
2023-05-02T11:48:31.647Z,102696.16
2023-05-02T11:51:03.486Z,102697.50
2023-05-02T11:53:33.371Z,102707.84
2023-05-02T11:56:03.372Z,102719.09
2023-05-02T11:58:32.987Z,102708.28
2023-05-02T12:01:12.520Z,102711.59
2023-05-02T12:03:40.775Z,102714.81
2023-05-02T12:06:16.037Z,102722.50
2023-05-02T12:08:46.399Z,102722.66
2023-05-02T12:11:15.526Z,102721.66
2023-05-02T12:13:46.903Z,102732.88
2023-05-02T12:16:15.316Z,102735.22
2023-05-02T12:18:44.191Z,102734.31
2023-05-02T12:21:13.199Z,102722.16
2023-05-02T12:23:42.380Z,102722.06
2023-05-02T12:26:24.387Z,102724.41
2023-05-02T12:28:54.720Z,102720.00
2023-05-02T12:31:23.811Z,102736.94
2023-05-02T12:33:53.572Z,102733.56
2023-05-02T12:36:23.418Z,102741.34
2023-05-02T12:38:53.155Z,102747.44
2023-05-02T12:41:32.612Z,102731.06
2023-05-02T12:44:01.106Z,102733.16
2023-05-02T12:46:34.974Z,102736.66
2023-05-02T12:49:02.939Z,102737.31
2023-05-02T12:51:31.826Z,102741.00
2023-05-02T12:53:59.774Z,102746.19
2023-05-02T12:56:32.202Z,102745.19
2023-05-02T12:59:05.077Z,102746.50
2023-05-02T13:01:35.129Z,102754.19
2023-05-02T13:04:04.161Z,102752.66
2023-05-02T13:06:32.169Z,102750.03
2023-05-02T13:09:00.166Z,102748.53
2023-05-02T13:11:28.873Z,102755.13
2023-05-02T13:13:57.864Z,102750.56
2023-05-02T13:16:27.239Z,102759.81
2023-05-02T13:18:55.149Z,102755.97
2023-05-02T13:21:22.988Z,102753.25
2023-05-02T13:23:51.878Z,102755.91
2023-05-02T13:26:19.707Z,102746.19
2023-05-02T13:28:47.499Z,102754.25
2023-05-02T13:31:15.287Z,102762.91
2023-05-02T13:33:44.571Z,102753.41
2023-05-02T13:36:12.350Z,102761.56
2023-05-02T13:38:42.354Z,102757.66
2023-05-02T13:41:10.228Z,102772.59
2023-05-02T13:43:39.281Z,102754.59
2023-05-02T13:46:07.257Z,102765.47
2023-05-02T13:48:37.342Z,102767.75
2023-05-02T13:51:06.531Z,102771.59
2023-05-02T13:53:34.369Z,102775.91
2023-05-02T13:56:02.129Z,102772.31
2023-05-02T13:58:29.929Z,102774.19
2023-05-02T14:00:57.986Z,102772.78
2023-05-02T14:03:26.090Z,102773.69
2023-05-02T14:05:53.982Z,102771.69
2023-05-02T14:08:23.146Z,102779.56
2023-05-02T14:10:51.124Z,102768.72
2023-05-02T14:13:19.110Z,102762.53
2023-05-02T14:15:47.107Z,102770.03
2023-05-02T14:18:16.624Z,102765.75
2023-05-02T14:20:46.582Z,102763.75
2023-05-02T14:23:14.385Z,102770.25
2023-05-02T14:25:43.560Z,102772.44
2023-05-02T14:28:11.370Z,102762.25
2023-05-02T14:30:39.135Z,102771.09
2023-05-02T14:33:06.905Z,102761.59
2023-05-02T14:35:34.726Z,102766.69
2023-05-02T14:38:02.534Z,102759.72
2023-05-02T14:40:30.385Z,102768.31
2023-05-02T14:42:59.603Z,102771.25
2023-05-02T14:45:27.771Z,102767.03
2023-05-02T14:47:55.917Z,102760.59
2023-05-02T14:50:23.779Z,102758.44
2023-05-02T14:52:51.640Z,102752.41
2023-05-02T14:55:19.478Z,102758.50
2023-05-02T14:57:47.324Z,102763.69
2023-05-02T15:00:18.131Z,102755.19
2023-05-02T15:02:46.056Z,102758.50
2023-05-02T15:05:13.956Z,102753.25
2023-05-02T15:07:41.909Z,102753.69
2023-05-02T15:10:10.386Z,102757.88
2023-05-02T15:12:38.202Z,102769.34
2023-05-02T15:15:06.889Z,102770.28
2023-05-02T15:17:36.005Z,102766.41
2023-05-02T15:20:04.633Z,102771.25
2023-05-02T15:22:32.893Z,102771.94
2023-05-02T15:25:01.245Z,102768.47
2023-05-02T15:27:30.282Z,102778.03
2023-05-02T15:29:58.171Z,102780.28
2023-05-02T15:32:26.007Z,102781.75
2023-05-02T15:34:55.221Z,102778.38
2023-05-02T15:37:22.989Z,102777.66
2023-05-02T15:39:51.952Z,102777.53
2023-05-02T15:42:19.731Z,102777.91
2023-05-02T15:44:47.552Z,102784.50
2023-05-02T15:47:15.415Z,102792.84
2023-05-02T15:49:43.814Z,102792.59
2023-05-02T15:52:13.019Z,102789.59
2023-05-02T15:54:40.821Z,102799.50
2023-05-02T15:57:08.648Z,102806.03
2023-05-02T15:59:36.449Z,102798.78
2023-05-02T16:02:04.309Z,102801.88
2023-05-02T16:04:34.951Z,102799.88
2023-05-02T16:07:02.942Z,102803.16
2023-05-02T16:09:32.176Z,102799.44
2023-05-02T16:12:01.454Z,102794.72
2023-05-02T16:14:29.305Z,102802.41
2023-05-02T16:16:59.649Z,102795.19
2023-05-02T16:19:27.474Z,102796.81
2023-05-02T16:21:55.339Z,102797.28
2023-05-02T16:24:23.161Z,102789.31
2023-05-02T16:26:52.392Z,102804.69
2023-05-02T16:29:20.183Z,102792.22
2023-05-02T16:31:48.111Z,102797.72
2023-05-02T16:34:16.086Z,102797.09
2023-05-02T16:36:43.953Z,102792.31
2023-05-02T16:39:12.157Z,102804.31
2023-05-02T16:41:40.721Z,102798.25
2023-05-02T16:44:10.581Z,102800.22
2023-05-02T16:46:38.478Z,102802.84
2023-05-02T16:49:06.813Z,102799.16
2023-05-02T16:51:34.710Z,102791.00
2023-05-02T16:54:02.591Z,102796.63
2023-05-02T16:56:30.633Z,102798.31
2023-05-02T16:58:58.357Z,102803.59
2023-05-02T17:01:27.654Z,102801.28
2023-05-02T17:03:55.475Z,102799.34
2023-05-02T17:06:23.399Z,102791.25
2023-05-02T17:08:51.177Z,102797.41
2023-05-02T17:11:19.042Z,102795.44
2023-05-02T17:13:49.729Z,102801.69
2023-05-02T17:16:18.006Z,102800.00
2023-05-02T17:18:48.019Z,102805.00
2023-05-02T17:21:16.152Z,102799.66
2023-05-02T17:23:44.012Z,102810.25
2023-05-02T17:26:15.582Z,102788.34
2023-05-02T17:28:44.973Z,102809.41
2023-05-02T17:31:13.121Z,102813.34
2023-05-02T17:33:42.621Z,102818.13
2023-05-02T17:36:11.886Z,102818.03
2023-05-02T17:38:39.692Z,102818.84
2023-05-02T17:41:07.659Z,102823.38
2023-05-02T17:43:35.807Z,102821.53
2023-05-02T17:46:08.618Z,102831.91
2023-05-02T17:48:36.992Z,102833.97
2023-05-02T17:51:05.648Z,102829.59
2023-05-02T17:53:35.478Z,102821.88
2023-05-02T17:56:03.728Z,102826.88
2023-05-02T17:58:35.446Z,102841.91
2023-05-02T18:01:08.565Z,102840.72
2023-05-02T18:03:36.659Z,102847.72
2023-05-02T18:06:05.173Z,102841.13
2023-05-02T18:08:34.675Z,102834.56
2023-05-02T18:11:03.387Z,102844.91
2023-05-02T18:13:31.345Z,102841.03
2023-05-02T18:16:00.202Z,102839.94
2023-05-02T18:18:28.052Z,102844.78
2023-05-02T18:20:55.997Z,102844.00
2023-05-02T18:23:23.746Z,102842.53
2023-05-02T18:25:52.960Z,102846.06
2023-05-02T18:28:20.740Z,102847.72
2023-05-02T18:30:48.686Z,102852.38
2023-05-02T18:33:16.590Z,102860.75
2023-05-02T18:35:47.487Z,102848.06
2023-05-02T18:38:15.550Z,102853.63
2023-05-02T18:40:43.685Z,102863.13
2023-05-02T18:43:12.870Z,102868.50
2023-05-02T18:45:41.068Z,102869.19
2023-05-02T18:48:09.032Z,102862.31
2023-05-02T18:50:37.040Z,102862.72
2023-05-02T18:53:05.172Z,102866.28
2023-05-02T18:55:33.412Z,102867.84
2023-05-02T18:58:01.345Z,102866.97
2023-05-02T19:00:31.665Z,102870.19
2023-05-02T19:02:59.913Z,102867.75
2023-05-02T19:05:28.150Z,102864.94
2023-05-02T19:07:56.089Z,102869.31
2023-05-02T19:10:24.003Z,102879.81
2023-05-02T19:12:51.979Z,102875.63
2023-05-02T19:15:19.879Z,102875.75
2023-05-02T19:17:50.754Z,102873.69
2023-05-02T19:20:20.642Z,102871.72
2023-05-02T19:22:49.204Z,102881.81
2023-05-02T19:25:16.983Z,102878.25
2023-05-02T19:27:47.674Z,102890.38
2023-05-02T19:30:15.829Z,102891.50
2023-05-02T19:32:43.655Z,102886.25
2023-05-02T19:35:13.317Z,102894.63
2023-05-02T19:37:41.220Z,102893.03
2023-05-02T19:40:10.953Z,102894.34
2023-05-02T19:42:39.411Z,102889.88
2023-05-02T19:45:08.436Z,102882.13
2023-05-02T19:47:36.416Z,102892.28
2023-05-02T19:50:04.362Z,102899.63
2023-05-02T19:52:34.372Z,102902.47
2023-05-02T19:55:02.304Z,102901.41
2023-05-02T19:57:30.828Z,102902.63
2023-05-02T19:59:58.667Z,102897.13
2023-05-02T20:02:27.060Z,102900.75
2023-05-02T20:04:54.977Z,102906.88
2023-05-02T20:07:22.743Z,102914.47
2023-05-02T20:09:51.875Z,102921.16
2023-05-02T20:12:19.748Z,102918.00
2023-05-02T20:14:47.532Z,102922.13
2023-05-02T20:17:15.938Z,102932.81
2023-05-02T20:19:45.345Z,102924.31
2023-05-02T20:22:13.276Z,102926.94
2023-05-02T20:24:43.715Z,102921.78
2023-05-02T20:27:12.909Z,102923.00
2023-05-02T20:29:41.056Z,102917.91
2023-05-02T20:32:09.229Z,102940.22
2023-05-02T20:34:39.118Z,102936.56
2023-05-02T20:37:07.462Z,102936.75
2023-05-02T20:39:35.399Z,102939.47
2023-05-02T20:42:04.295Z,102944.19
2023-05-02T20:44:34.487Z,102946.69
2023-05-02T20:47:04.076Z,102949.88
2023-05-02T20:49:32.524Z,102946.63
2023-05-02T20:52:04.211Z,102947.59
2023-05-02T20:54:32.279Z,102942.50
2023-05-02T20:57:00.096Z,102934.38
2023-05-02T20:59:27.882Z,102940.75
2023-05-02T21:01:57.124Z,102933.66
2023-05-02T21:04:25.358Z,102932.56
2023-05-02T21:06:54.993Z,102932.59
2023-05-02T21:09:22.800Z,102933.66
2023-05-02T21:11:50.604Z,102898.69
2023-05-02T21:14:18.682Z,102933.84
2023-05-02T21:16:46.601Z,102932.22
2023-05-02T21:19:15.773Z,102935.13
2023-05-02T21:21:43.642Z,102937.97
2023-05-02T21:24:11.418Z,102936.81
2023-05-02T21:26:40.742Z,102944.22
2023-05-02T21:29:10.756Z,102940.94
2023-05-02T21:31:39.522Z,102944.47
2023-05-02T21:34:07.556Z,102954.00
2023-05-02T21:36:36.811Z,102952.19
2023-05-02T21:39:05.077Z,102950.28
2023-05-02T21:41:32.945Z,102943.75
2023-05-02T21:44:00.731Z,102933.84
2023-05-02T21:46:28.567Z,102943.88
2023-05-02T21:48:56.620Z,102922.38
2023-05-02T21:51:24.384Z,102926.06
2023-05-02T21:53:53.835Z,102918.44
2023-05-02T21:56:21.637Z,102911.25
2023-05-02T21:58:51.364Z,102920.50
2023-05-02T22:01:19.385Z,102910.81
2023-05-02T22:03:47.333Z,102914.59
2023-05-02T22:06:15.388Z,102909.19
2023-05-02T22:08:43.203Z,102915.72
2023-05-02T22:11:12.327Z,102913.44
2023-05-02T22:13:40.595Z,102914.28
2023-05-02T22:16:08.681Z,102910.53
2023-05-02T22:18:36.987Z,102910.53
2023-05-02T22:21:04.877Z,102918.84
2023-05-02T22:23:32.648Z,102915.31
2023-05-02T22:26:00.441Z,102910.84
2023-05-02T22:28:29.711Z,102918.97
2023-05-02T22:30:57.604Z,102914.69
2023-05-02T22:33:25.372Z,102923.75
2023-05-02T22:35:53.191Z,102924.63
2023-05-02T22:38:21.443Z,102915.94
2023-05-02T22:40:49.202Z,102922.31
2023-05-02T22:43:17.728Z,102924.19
2023-05-02T22:45:47.266Z,102923.16
2023-05-02T22:48:15.019Z,102923.25
2023-05-02T22:50:43.721Z,102922.03
2023-05-02T22:53:11.470Z,102921.16
2023-05-02T22:55:39.961Z,102919.09
2023-05-02T22:58:07.819Z,102921.06
2023-05-02T23:00:35.717Z,102920.94
2023-05-02T23:03:05.034Z,102926.28
2023-05-02T23:05:32.884Z,102926.50
2023-05-02T23:08:00.600Z,102927.91
2023-05-02T23:10:28.513Z,102922.72
2023-05-02T23:12:56.301Z,102929.97
2023-05-02T23:15:24.290Z,102931.94
2023-05-02T23:17:52.090Z,102936.47
2023-05-02T23:20:23.283Z,102942.81
2023-05-02T23:22:51.199Z,102935.69
2023-05-02T23:25:20.044Z,102938.44
2023-05-02T23:27:47.770Z,102938.44
2023-05-02T23:30:15.622Z,102933.31
2023-05-02T23:32:43.460Z,102953.00
2023-05-02T23:35:12.384Z,102950.44
2023-05-02T23:37:42.112Z,102955.06
2023-05-02T23:40:10.738Z,102955.25
2023-05-02T23:42:40.247Z,102957.16
2023-05-02T23:45:09.034Z,102960.00
2023-05-02T23:47:37.383Z,102958.25
2023-05-02T23:50:05.483Z,102962.00
2023-05-02T23:52:33.764Z,102954.81
2023-05-02T23:55:03.142Z,102954.91
2023-05-02T23:57:31.268Z,102962.28
2023-05-02T23:59:59.280Z,102958.75
